Time;durP1;ratioP1;P1;durP2;ratioP2;P2;SDS_P1;SDS_P2;PMS_P1;PMS_P2;Temp;Humidity;BMP_temperature;BMP_pressure;BME280_temperature;BME280_humidity;BME280_pressure;Samples;Min_cycle;Max_cycle;Signal;HPM_P1;HPM_P2
2022/03/01 00:01:58;;;;;;;12.15;8.27;;;4.00;98.20;;;;;;5075089;28;20043;-41
2022/03/01 00:04:24;;;;;;;12.13;8.73;;;4.00;98.20;;;;;;5067723;28;20028;-40
2022/03/01 00:06:49;;;;;;;11.30;8.40;;;4.00;98.20;;;;;;5072152;28;20028;-42
2022/03/01 00:09:24;;;;;;;12.57;8.27;;;3.90;98.30;;;;;;5070273;28;20120;-42
2022/03/01 00:11:49;;;;;;;12.98;8.32;;;3.80;98.40;;;;;;5071735;28;20107;-42
2022/03/01 00:14:15;;;;;;;13.75;9.60;;;3.80;98.50;;;;;;5070765;28;20111;-42
2022/03/01 00:16:41;;;;;;;12.82;8.80;;;3.80;98.60;;;;;;5069202;28;20017;-42
2022/03/01 00:19:06;;;;;;;11.15;9.20;;;3.80;98.60;;;;;;5075185;28;20071;-42
2022/03/01 00:21:32;;;;;;;12.23;8.45;;;3.70;98.90;;;;;;5065095;28;20032;-42
2022/03/01 00:23:57;;;;;;;11.05;8.18;;;3.60;98.70;;;;;;5076768;28;20024;-42
2022/03/01 00:26:23;;;;;;;12.60;8.82;;;3.60;98.80;;;;;;5066517;28;20028;-42
2022/03/01 00:28:49;;;;;;;12.82;8.88;;;3.60;98.90;;;;;;5075789;28;20067;-43
2022/03/01 00:31:14;;;;;;;14.35;8.40;;;3.60;98.90;;;;;;5064841;28;20068;-42
2022/03/01 00:33:40;;;;;;;12.98;8.70;;;3.50;99.00;;;;;;5078137;28;20020;-42
2022/03/01 00:36:06;;;;;;;11.43;8.18;;;3.50;99.10;;;;;;5065233;28;20028;-42
2022/03/01 00:38:31;;;;;;;12.73;8.30;;;3.50;99.10;;;;;;5077381;28;20356;-41
2022/03/01 00:40:57;;;;;;;13.00;8.85;;;3.40;99.20;;;;;;5065012;28;20508;-43
2022/03/01 00:43:23;;;;;;;12.73;8.27;;;3.40;99.20;;;;;;5075193;28;20074;-42
2022/03/01 00:45:50;;;;;;;11.88;8.48;;;3.40;99.30;;;;;;5066938;28;20031;-42
2022/03/01 00:48:15;;;;;;;11.98;8.55;;;3.30;99.30;;;;;;5072458;28;20379;-42
2022/03/01 00:50:41;;;;;;;13.40;9.05;;;3.30;99.40;;;;;;5066258;28;20024;-43
2022/03/01 00:53:07;;;;;;;12.52;9.15;;;3.30;99.50;;;;;;5070367;28;20056;-42
2022/03/01 00:55:33;;;;;;;14.30;8.73;;;3.30;99.60;;;;;;5071662;28;20082;-42
2022/03/01 00:57:58;;;;;;;12.18;8.70;;;3.20;99.60;;;;;;5067790;28;20024;-41
2022/03/01 01:00:24;;;;;;;12.88;8.38;;;3.30;99.60;;;;;;5074393;28;20044;-42
2022/03/01 01:02:50;;;;;;;13.80;8.93;;;3.30;99.50;;;;;;5065499;28;20044;-41
2022/03/01 01:05:16;;;;;;;12.98;8.75;;;3.40;99.60;;;;;;5075854;28;20055;-41
2022/03/01 01:07:42;;;;;;;13.75;8.82;;;3.40;99.50;;;;;;5066952;28;20020;-42
2022/03/01 01:10:08;;;;;;;15.52;10.02;;;3.40;99.50;;;;;;5075180;28;20369;-42
2022/03/01 01:12:34;;;;;;;13.85;8.95;;;3.40;99.50;;;;;;5064319;28;20069;-43
2022/03/01 01:15:00;;;;;;;12.45;8.60;;;3.30;99.60;;;;;;5076909;28;20051;-42
2022/03/01 01:17:25;;;;;;;12.93;8.32;;;3.30;99.60;;;;;;5063439;28;20033;-43
2022/03/01 01:19:51;;;;;;;12.85;8.77;;;3.30;99.60;;;;;;5077390;28;20023;-42
2022/03/01 01:25:02;;;;;;;12.57;8.55;;;3.30;99.70;;;;;;5076279;28;20490;-42
2022/03/01 01:27:28;;;;;;;11.13;7.93;;;3.30;99.70;;;;;;5064044;28;20029;-43
2022/03/01 01:29:53;;;;;;;14.50;9.52;;;3.30;99.80;;;;;;5075149;28;20091;-42
2022/03/01 01:32:19;;;;;;;13.43;9.48;;;3.30;99.90;;;;;;5064979;28;20040;-41
2022/03/01 01:34:44;;;;;;;12.30;9.07;;;3.30;99.90;;;;;;5075013;28;20032;-42
2022/03/01 01:37:10;;;;;;;13.27;8.70;;;3.30;99.90;;;;;;5072680;28;20404;-41
2022/03/01 01:39:35;;;;;;;13.50;9.27;;;3.20;99.90;;;;;;5072249;28;20528;-42
2022/03/01 01:42:01;;;;;;;14.25;9.63;;;3.30;99.90;;;;;;5076201;28;20075;-41
2022/03/01 01:44:29;;;;;;;15.77;9.82;;;3.30;99.90;;;;;;5068857;28;20042;-44
2022/03/01 01:46:56;;;;;;;12.65;9.18;;;3.30;99.90;;;;;;5079106;28;20028;-41
2022/03/01 01:49:21;;;;;;;14.85;9.70;;;3.30;99.90;;;;;;5074045;28;20029;-41
2022/03/01 01:51:47;;;;;;;12.98;8.98;;;3.30;99.90;;;;;;5075979;28;20826;-41
2022/03/01 01:54:13;;;;;;;13.20;9.52;;;3.30;99.90;;;;;;5087095;28;20560;-41
2022/03/01 01:56:39;;;;;;;14.48;9.65;;;3.30;99.90;;;;;;5076815;28;20019;-41
2022/03/01 01:59:04;;;;;;;13.25;9.07;;;3.30;99.90;;;;;;5087970;28;20058;-41
2022/03/01 02:01:30;;;;;;;12.23;8.40;;;3.30;99.90;;;;;;5075301;28;20063;-41
2022/03/01 02:03:55;;;;;;;14.27;9.30;;;3.30;99.90;;;;;;5088463;28;20028;-43
2022/03/01 02:06:21;;;;;;;12.15;8.48;;;3.30;99.90;;;;;;5074483;28;20028;-42
2022/03/01 02:08:46;;;;;;;14.23;8.90;;;3.30;99.90;;;;;;5088063;28;20105;-43
2022/03/01 02:11:12;;;;;;;13.40;8.70;;;3.30;99.90;;;;;;5078578;28;20513;-37
2022/03/01 02:13:37;;;;;;;14.38;8.98;;;3.40;99.90;;;;;;5084187;28;20475;-39
2022/03/01 02:16:03;;;;;;;13.88;9.68;;;3.40;99.90;;;;;;5081095;28;20032;-41
2022/03/01 02:18:29;;;;;;;12.98;9.52;;;3.40;99.90;;;;;;5081669;28;20028;-43
2022/03/01 02:20:54;;;;;;;12.88;8.77;;;3.40;99.90;;;;;;5082042;28;20078;-42
2022/03/01 02:23:20;;;;;;;13.48;8.52;;;3.40;99.90;;;;;;5078680;28;20036;-42
2022/03/01 02:25:46;;;;;;;11.85;8.57;;;3.40;99.90;;;;;;5085467;28;20027;-41
2022/03/01 02:28:11;;;;;;;12.70;8.48;;;3.40;99.90;;;;;;5074967;28;20059;-41
2022/03/01 02:30:37;;;;;;;14.52;9.00;;;3.50;99.90;;;;;;5085802;28;20054;-41
2022/03/01 02:33:03;;;;;;;16.02;9.45;;;3.50;99.90;;;;;;5076150;28;20059;-40
2022/03/01 02:35:29;;;;;;;12.57;9.15;;;3.50;99.90;;;;;;5085722;28;20024;-44
2022/03/01 02:37:54;;;;;;;12.65;8.95;;;3.50;99.90;;;;;;5074966;28;20586;-42
2022/03/01 02:40:20;;;;;;;15.23;8.90;;;3.50;99.90;;;;;;5086281;28;20105;-42
2022/03/01 02:42:47;;;;;;;12.13;9.10;;;3.40;99.90;;;;;;5074149;28;20040;-41
2022/03/01 02:45:15;;;;;;;13.85;8.60;;;3.40;99.90;;;;;;5086331;28;20131;-42
2022/03/01 02:47:41;;;;;;;13.55;8.95;;;3.30;99.90;;;;;;5074921;28;20810;-40
2022/03/01 02:50:08;;;;;;;12.45;9.18;;;3.30;99.90;;;;;;5086799;28;20024;-40
2022/03/01 02:52:34;;;;;;;12.02;8.48;;;3.30;99.90;;;;;;5077455;28;20051;-43
2022/03/01 02:55:00;;;;;;;12.00;8.80;;;3.20;99.90;;;;;;5082994;28;20060;-40
2022/03/01 02:57:26;;;;;;;10.43;8.00;;;3.20;99.90;;;;;;5079560;28;20028;-42
2022/03/01 02:59:52;;;;;;;13.25;7.97;;;3.10;99.90;;;;;;5081008;28;20028;-42
2022/03/01 03:02:18;;;;;;;14.10;8.75;;;3.10;99.90;;;;;;5082083;28;20062;-42
2022/03/01 03:04:44;;;;;;;13.55;8.68;;;3.10;99.90;;;;;;5078147;28;20534;-42
2022/03/01 03:07:10;;;;;;;13.98;9.50;;;3.10;99.90;;;;;;5084747;28;20024;-36
2022/03/01 03:09:36;;;;;;;13.95;8.82;;;3.20;99.90;;;;;;5074842;28;20117;-41
2022/03/01 03:12:02;;;;;;;11.88;8.80;;;3.20;99.90;;;;;;5085569;28;20039;-42
2022/03/01 03:14:28;;;;;;;11.68;8.40;;;3.30;99.90;;;;;;5074923;28;20034;-42
2022/03/01 03:16:53;;;;;;;15.15;8.90;;;3.30;99.90;;;;;;5086069;28;20028;-42
2022/03/01 03:19:19;;;;;;;12.93;8.20;;;3.30;99.90;;;;;;5073289;28;20482;-41
2022/03/01 03:21:45;;;;;;;12.52;8.73;;;3.30;99.90;;;;;;5086743;28;20047;-43
2022/03/01 03:24:11;;;;;;;12.70;9.35;;;3.30;99.90;;;;;;5072755;28;20032;-41
2022/03/01 03:26:37;;;;;;;14.02;9.20;;;3.40;99.90;;;;;;5086581;28;20520;-41
2022/03/01 03:29:04;;;;;;;12.48;8.38;;;3.50;99.90;;;;;;5074229;28;20366;-43
2022/03/01 03:31:30;;;;;;;12.05;8.35;;;3.50;99.90;;;;;;5084004;28;20150;-43
2022/03/01 03:33:56;;;;;;;12.18;8.40;;;3.50;99.90;;;;;;5077093;28;20502;-44
2022/03/01 03:36:21;;;;;;;13.75;9.63;;;3.60;99.90;;;;;;5082053;28;20032;-43
2022/03/01 03:38:47;;;;;;;12.48;8.63;;;3.60;99.90;;;;;;5078952;28;20481;-44
2022/03/01 03:41:13;;;;;;;15.48;9.18;;;3.60;99.90;;;;;;5079740;28;20016;-42
2022/03/01 03:43:39;;;;;;;15.32;8.00;;;3.60;99.90;;;;;;5081794;28;20077;-42
2022/03/01 03:46:04;;;;;;;11.88;9.07;;;3.60;99.90;;;;;;5077732;28;20024;-41
2022/03/01 03:48:30;;;;;;;12.82;8.88;;;3.60;99.90;;;;;;5083230;28;20111;-43
2022/03/01 03:50:55;;;;;;;13.23;8.57;;;3.60;99.90;;;;;;5074857;28;20792;-42
2022/03/01 03:53:21;;;;;;;14.75;9.48;;;3.50;99.90;;;;;;5083206;28;20127;-42
2022/03/01 03:55:47;;;;;;;11.82;8.55;;;3.50;99.90;;;;;;5075244;28;20484;-43
2022/03/01 03:58:12;;;;;;;12.85;9.05;;;3.50;99.90;;;;;;5084357;28;20032;-42
2022/03/01 04:00:38;;;;;;;11.43;8.00;;;3.50;99.90;;;;;;5072846;28;20027;-41
2022/03/01 04:03:03;;;;;;;11.65;8.52;;;3.50;99.90;;;;;;5086424;28;20039;-42
2022/03/01 04:05:29;;;;;;;11.98;8.35;;;3.50;99.90;;;;;;5071414;28;20036;-42
2022/03/01 04:08:04;;;;;;;12.32;8.13;;;3.50;99.90;;;;;;5086025;28;20081;-40
2022/03/01 04:10:29;;;;;;;14.48;8.77;;;3.50;99.90;;;;;;5073323;28;20028;-42
2022/03/01 04:12:55;;;;;;;12.13;8.35;;;3.60;99.90;;;;;;5084063;28;20039;-42
2022/03/01 04:15:21;;;;;;;13.30;8.63;;;3.60;99.90;;;;;;5075547;28;20021;-43
2022/03/01 04:17:46;;;;;;;12.98;9.23;;;3.60;99.90;;;;;;5082464;28;20063;-44
2022/03/01 04:20:12;;;;;;;14.68;9.23;;;3.70;99.90;;;;;;5078242;28;20189;-42
2022/03/01 04:22:38;;;;;;;12.50;8.68;;;3.70;99.90;;;;;;5079930;28;20483;-41
2022/03/01 04:25:08;;;;;;;13.25;9.00;;;3.70;99.90;;;;;;5081146;28;20024;-41
2022/03/01 04:27:34;;;;;;;12.02;8.40;;;3.80;99.90;;;;;;5076667;28;20071;-43
2022/03/01 04:30:00;;;;;;;12.32;8.80;;;3.80;99.90;;;;;;5083291;28;20488;-41
2022/03/01 04:32:26;;;;;;;13.18;8.98;;;3.80;99.90;;;;;;5074861;28;20107;-43
2022/03/01 04:34:51;;;;;;;13.68;8.85;;;3.70;99.90;;;;;;5083211;28;20035;-42
2022/03/01 04:37:17;;;;;;;12.73;8.55;;;3.70;99.90;;;;;;5074305;28;20032;-42
2022/03/01 04:39:42;;;;;;;13.20;8.90;;;3.70;99.90;;;;;;5084323;28;20387;-42
2022/03/01 04:42:11;;;;;;;14.85;9.60;;;3.70;99.90;;;;;;5071689;28;20048;-43
2022/03/01 04:44:36;;;;;;;12.73;8.90;;;3.70;99.90;;;;;;5084853;28;20046;-41
2022/03/01 04:47:03;;;;;;;14.13;9.75;;;3.70;99.90;;;;;;5071835;28;20463;-43
2022/03/01 04:49:29;;;;;;;14.15;9.40;;;3.70;99.90;;;;;;5084866;28;20040;-41
2022/03/01 04:51:55;;;;;;;11.70;8.90;;;3.70;99.90;;;;;;5072673;28;20044;-42
2022/03/01 04:54:21;;;;;;;13.45;8.73;;;3.70;99.90;;;;;;5083483;28;20052;-40
2022/03/01 04:56:46;;;;;;;12.55;9.10;;;3.70;99.90;;;;;;5075575;28;20020;-42
2022/03/01 04:59:12;;;;;;;9.93;7.93;;;3.70;99.90;;;;;;5082621;28;20324;-41
2022/03/01 05:01:38;;;;;;;14.25;9.13;;;3.70;99.90;;;;;;5077062;28;20485;-43
2022/03/01 05:04:03;;;;;;;15.55;11.25;;;3.70;99.90;;;;;;5079876;28;20580;-43
2022/03/01 05:06:30;;;;;;;12.82;9.90;;;3.70;99.90;;;;;;5079288;28;20016;-42
2022/03/01 05:08:58;;;;;;;13.88;9.25;;;3.80;99.90;;;;;;5078911;28;20051;-42
2022/03/01 05:11:24;;;;;;;13.02;9.80;;;3.80;99.90;;;;;;5086121;28;20016;-42
2022/03/01 05:13:49;;;;;;;13.13;9.52;;;3.80;99.90;;;;;;5078911;28;20116;-43
2022/03/01 05:16:15;;;;;;;16.73;10.25;;;3.80;99.90;;;;;;5086675;28;20101;-42
2022/03/01 05:18:40;;;;;;;15.35;10.63;;;3.80;99.90;;;;;;5077185;28;20038;-41
2022/03/01 05:21:09;;;;;;;15.95;10.55;;;3.80;99.90;;;;;;5088385;28;20024;-42
2022/03/01 05:23:34;;;;;;;15.10;11.05;;;3.80;99.90;;;;;;5076108;28;20036;-41
2022/03/01 05:26:00;;;;;;;15.95;10.68;;;3.80;99.90;;;;;;5088988;28;20059;-41
2022/03/01 05:28:25;;;;;;;15.70;9.93;;;3.70;99.90;;;;;;5075587;28;20063;-40
2022/03/01 05:30:51;;;;;;;14.35;9.40;;;3.80;99.90;;;;;;5087984;28;20493;-42
2022/03/01 05:33:16;;;;;;;14.43;9.32;;;3.80;99.90;;;;;;5075724;28;20039;-44
2022/03/01 05:35:44;;;;;;;11.63;8.40;;;3.80;99.90;;;;;;5088667;28;20166;-43
2022/03/01 05:38:10;;;;;;;12.77;8.63;;;3.70;99.90;;;;;;5077799;28;20081;-43
2022/03/01 05:40:36;;;;;;;14.60;8.90;;;3.70;99.90;;;;;;5085483;28;20645;-43
2022/03/01 05:43:02;;;;;;;14.25;9.75;;;3.70;99.90;;;;;;5081054;28;20112;-43
2022/03/01 05:45:29;;;;;;;13.98;9.90;;;3.70;99.90;;;;;;5082006;28;20570;-41
2022/03/01 05:47:56;;;;;;;14.68;10.30;;;3.60;99.90;;;;;;5083773;28;20023;-42
2022/03/01 05:50:21;;;;;;;13.70;9.88;;;3.60;99.90;;;;;;5083280;28;20028;-44
2022/03/01 05:52:47;;;;;;;16.08;9.73;;;3.60;99.90;;;;;;5085687;28;20046;-45
2022/03/01 05:55:13;;;;;;;15.18;10.43;;;3.50;99.90;;;;;;5077381;28;20391;-43
2022/03/01 05:57:39;;;;;;;15.43;10.00;;;3.50;99.90;;;;;;5086313;28;20020;-41
2022/03/01 06:00:08;;;;;;;14.02;9.80;;;3.50;99.90;;;;;;5076707;28;20036;-40
2022/03/01 06:02:34;;;;;;;13.00;9.50;;;3.50;99.90;;;;;;5086150;28;20776;-42
2022/03/01 06:04:59;;;;;;;14.43;9.93;;;3.50;99.90;;;;;;5076349;28;20088;-42
2022/03/01 06:07:25;;;;;;;13.93;9.15;;;3.50;99.90;;;;;;5087594;28;20028;-40
2022/03/01 06:09:50;;;;;;;12.90;8.00;;;3.50;99.90;;;;;;5075737;28;20479;-39
2022/03/01 06:12:16;;;;;;;12.75;9.15;;;3.60;99.90;;;;;;5086873;28;20123;-43
2022/03/01 06:14:42;;;;;;;12.32;8.68;;;3.60;99.90;;;;;;5075278;28;20024;-42
2022/03/01 06:17:08;;;;;;;13.98;8.57;;;3.60;99.90;;;;;;5088121;28;20143;-40
2022/03/01 06:19:33;;;;;;;14.02;9.45;;;3.60;99.90;;;;;;5075266;28;20473;-41
2022/03/01 06:22:00;;;;;;;15.18;9.20;;;3.60;99.90;;;;;;5085185;28;20035;-42
2022/03/01 06:24:44;;;;;;;14.55;9.80;;;3.70;99.90;;;;;;5080241;28;20036;-42
2022/03/01 06:27:10;;;;;;;14.40;9.18;;;3.70;99.90;;;;;;5084555;28;20103;-41
2022/03/01 06:29:36;;;;;;;12.43;8.73;;;3.70;99.90;;;;;;5080492;28;20112;-42
2022/03/01 06:32:02;;;;;;;13.68;9.20;;;3.70;99.90;;;;;;5082571;28;20466;-42
2022/03/01 06:34:28;;;;;;;13.52;8.73;;;3.70;99.90;;;;;;5081517;28;20082;-41
2022/03/01 06:36:54;;;;;;;13.48;8.68;;;3.60;99.90;;;;;;5079988;28;20027;-43
2022/03/01 06:39:19;;;;;;;14.73;9.50;;;3.60;99.90;;;;;;5085056;28;20024;-43
2022/03/01 06:41:45;;;;;;;14.70;10.35;;;3.60;99.90;;;;;;5076684;28;20043;-42
2022/03/01 06:44:10;;;;;;;14.38;9.80;;;3.60;99.90;;;;;;5085599;28;20029;-41
2022/03/01 06:46:36;;;;;;;16.67;10.82;;;3.60;99.90;;;;;;5075672;28;20107;-41
2022/03/01 06:49:02;;;;;;;12.50;9.23;;;3.60;99.90;;;;;;5082808;28;20036;-43
2022/03/01 06:51:28;;;;;;;17.30;10.82;;;3.60;99.90;;;;;;5078705;28;20019;-41
2022/03/01 06:53:54;;;;;;;16.08;10.35;;;3.60;99.90;;;;;;5066902;28;20048;-42
2022/03/01 06:56:22;;;;;;;15.80;11.02;;;3.60;99.90;;;;;;5078567;28;20081;-41
2022/03/01 06:58:47;;;;;;;16.35;10.93;;;3.60;99.90;;;;;;5066306;28;20055;-40
2022/03/01 07:01:13;;;;;;;15.93;10.48;;;3.60;99.90;;;;;;5077966;28;20056;-43
2022/03/01 07:03:39;;;;;;;16.27;10.98;;;3.60;99.90;;;;;;5067195;28;20036;-41
2022/03/01 07:06:05;;;;;;;14.32;10.70;;;3.60;99.90;;;;;;5076454;28;20020;-42
2022/03/01 07:08:31;;;;;;;17.13;10.70;;;3.70;99.90;;;;;;5068708;28;20098;-42
2022/03/01 07:10:56;;;;;;;14.38;10.73;;;3.70;99.90;;;;;;5073470;28;20020;-42
2022/03/01 07:13:22;;;;;;;15.50;10.88;;;3.70;99.90;;;;;;5071145;28;20522;-40
2022/03/01 07:15:47;;;;;;;17.88;11.20;;;3.70;99.90;;;;;;5070293;28;20054;-41
2022/03/01 07:18:13;;;;;;;16.48;10.80;;;3.80;99.90;;;;;;5074377;28;20419;-41
2022/03/01 07:20:39;;;;;;;14.57;11.07;;;3.80;99.90;;;;;;5068227;28;20020;-41
2022/03/01 07:23:05;;;;;;;15.35;11.27;;;3.80;99.90;;;;;;5076760;28;20039;-42
2022/03/01 07:25:31;;;;;;;15.27;11.25;;;3.90;99.90;;;;;;5066847;28;20027;-42
2022/03/01 07:27:56;;;;;;;18.10;11.45;;;3.90;99.90;;;;;;5078206;28;20136;-40
2022/03/01 07:30:24;;;;;;;17.15;12.07;;;4.00;99.90;;;;;;5065300;28;20150;-42
2022/03/01 07:32:52;;;;;;;18.52;10.88;;;4.00;99.90;;;;;;5077800;28;20028;-42
2022/03/01 07:35:18;;;;;;;18.13;12.00;;;4.00;99.90;;;;;;5066231;28;20094;-42
2022/03/01 07:37:44;;;;;;;17.73;11.75;;;4.10;99.90;;;;;;5078323;28;20031;-41
2022/03/01 07:40:11;;;;;;;18.75;12.85;;;4.10;99.90;;;;;;5066303;28;20086;-42
2022/03/01 07:42:37;;;;;;;18.70;12.13;;;4.20;99.90;;;;;;5078328;28;20502;-40
2022/03/01 07:45:03;;;;;;;19.25;11.18;;;4.20;99.90;;;;;;5065626;28;20033;-42
2022/03/01 07:47:29;;;;;;;15.68;11.38;;;4.20;99.90;;;;;;5075061;28;20672;-42
2022/03/01 07:49:55;;;;;;;14.52;10.73;;;4.30;99.90;;;;;;5068805;28;20051;-41
2022/03/01 07:52:20;;;;;;;17.55;11.07;;;4.40;99.90;;;;;;5072331;28;20057;-41
2022/03/01 07:54:47;;;;;;;15.43;10.63;;;4.40;99.90;;;;;;5071689;28;20508;-41
2022/03/01 07:57:16;;;;;;;14.93;10.30;;;4.40;99.90;;;;;;5069506;28;20059;-43
2022/03/01 07:59:42;;;;;;;15.48;11.18;;;4.50;99.90;;;;;;5073780;28;20016;-43
2022/03/01 08:02:08;;;;;;;17.60;11.98;;;4.50;99.90;;;;;;5068490;28;20514;-42
2022/03/01 08:04:33;;;;;;;15.38;10.82;;;4.50;99.90;;;;;;5075032;28;20064;-41
2022/03/01 08:07:00;;;;;;;17.70;11.30;;;4.60;99.90;;;;;;5067027;28;20024;-42
2022/03/01 08:09:25;;;;;;;14.63;10.05;;;4.60;99.90;;;;;;5075885;28;20517;-42
2022/03/01 08:11:51;;;;;;;16.45;10.68;;;4.60;99.90;;;;;;5065923;28;20036;-41
2022/03/01 08:14:16;;;;;;;16.75;11.52;;;4.60;99.90;;;;;;5076620;28;20051;-43
2022/03/01 08:16:42;;;;;;;16.15;11.25;;;4.60;99.90;;;;;;5065955;28;20379;-42
2022/03/01 08:19:08;;;;;;;16.63;11.60;;;4.70;99.90;;;;;;5077362;28;20165;-43
2022/03/01 08:21:33;;;;;;;18.92;12.80;;;4.70;99.90;;;;;;5064622;28;20032;-42
2022/03/01 08:23:59;;;;;;;18.00;11.63;;;4.70;99.90;;;;;;5077435;28;20546;-43
2022/03/01 08:26:24;;;;;;;16.40;10.95;;;4.70;99.90;;;;;;5064555;28;20124;-41
2022/03/01 08:28:50;;;;;;;14.95;10.02;;;4.70;99.90;;;;;;5075250;28;20027;-43
2022/03/01 08:31:16;;;;;;;15.38;10.88;;;4.80;99.90;;;;;;5068083;28;20410;-44
2022/03/01 08:33:42;;;;;;;14.38;11.00;;;4.80;99.90;;;;;;5071277;28;20093;-43
2022/03/01 08:36:08;;;;;;;14.13;10.55;;;4.90;99.90;;;;;;5071720;28;20028;-41
2022/03/01 08:38:34;;;;;;;14.65;10.52;;;5.00;99.90;;;;;;5069472;28;20392;-41
2022/03/01 08:40:59;;;;;;;13.20;9.73;;;5.10;99.90;;;;;;5073433;28;20021;-43
2022/03/01 08:43:25;;;;;;;13.68;9.88;;;5.20;99.90;;;;;;5067833;28;20376;-42
2022/03/01 08:45:52;;;;;;;15.18;10.48;;;5.30;99.90;;;;;;5080435;28;20025;-41
2022/03/01 08:48:18;;;;;;;13.45;9.52;;;5.40;99.90;;;;;;5070126;28;20467;-42
2022/03/01 08:50:43;;;;;;;12.05;9.40;;;5.50;99.90;;;;;;5080087;28;20059;-41
2022/03/01 08:53:09;;;;;;;14.75;9.95;;;5.60;99.90;;;;;;5068958;28;20031;-40
2022/03/01 08:55:35;;;;;;;14.27;10.18;;;5.70;99.80;;;;;;5081630;28;20031;-40
2022/03/01 08:58:01;;;;;;;14.95;9.90;;;5.80;99.70;;;;;;5069187;28;20055;-43
2022/03/01 09:00:27;;;;;;;13.60;9.95;;;5.80;99.60;;;;;;5080711;28;20036;-43
2022/03/01 09:02:57;;;;;;;13.98;10.00;;;5.90;99.60;;;;;;5069492;28;20040;-42
2022/03/01 09:05:23;;;;;;;14.00;10.60;;;5.90;99.50;;;;;;5081272;28;20051;-43
2022/03/01 09:07:48;;;;;;;12.70;10.07;;;6.00;99.50;;;;;;5068754;28;20474;-43
2022/03/01 09:10:14;;;;;;;13.27;9.60;;;6.10;99.70;;;;;;5078075;28;20020;-43
2022/03/01 09:12:40;;;;;;;11.88;9.18;;;6.20;99.40;;;;;;5072283;28;20534;-41
2022/03/01 09:15:06;;;;;;;14.50;9.70;;;6.20;99.40;;;;;;5075383;28;20490;-43
2022/03/01 09:17:31;;;;;;;13.40;9.75;;;6.30;99.30;;;;;;5073793;28;20032;-43
2022/03/01 09:19:57;;;;;;;12.95;10.07;;;6.40;99.20;;;;;;5072927;28;20020;-42
2022/03/01 09:22:22;;;;;;;13.93;10.38;;;6.40;99.10;;;;;;5074884;28;20043;-43
2022/03/01 09:24:48;;;;;;;13.50;9.20;;;6.50;99.30;;;;;;5070737;28;20163;-42
2022/03/01 09:27:14;;;;;;;13.90;9.98;;;6.50;99.00;;;;;;5079225;28;20573;-40
2022/03/01 09:29:40;;;;;;;13.23;9.48;;;6.50;99.00;;;;;;5070301;28;20024;-42
2022/03/01 09:32:06;;;;;;;15.23;10.10;;;6.60;99.00;;;;;;5080074;28;20037;-42
2022/03/01 09:34:32;;;;;;;14.20;9.52;;;6.70;99.00;;;;;;5068590;28;20523;-43
2022/03/01 09:36:57;;;;;;;14.38;10.75;;;6.70;98.90;;;;;;5080643;28;20020;-43
2022/03/01 09:39:24;;;;;;;13.40;10.18;;;6.70;98.90;;;;;;5068193;28;20040;-41
2022/03/01 09:41:51;;;;;;;13.82;9.85;;;6.80;98.80;;;;;;5081216;28;20024;-41
2022/03/01 09:44:17;;;;;;;13.52;9.65;;;6.80;98.80;;;;;;5067000;28;20443;-42
2022/03/01 09:46:43;;;;;;;13.32;9.48;;;6.80;98.80;;;;;;5080154;28;20463;-43
2022/03/01 09:49:09;;;;;;;13.88;9.73;;;6.90;98.80;;;;;;5068871;28;20327;-41
2022/03/01 09:51:37;;;;;;;11.70;9.27;;;6.90;98.70;;;;;;5076643;28;20538;-42
2022/03/01 09:54:03;;;;;;;14.10;9.27;;;7.00;98.70;;;;;;5070765;28;20051;-42
2022/03/01 09:56:28;;;;;;;13.23;9.68;;;7.00;98.70;;;;;;5074528;28;20016;-43
2022/03/01 09:58:55;;;;;;;13.43;9.82;;;7.10;98.70;;;;;;5073393;28;20028;-43
2022/03/01 10:01:24;;;;;;;13.02;8.82;;;7.10;98.60;;;;;;5072125;28;20020;-43
2022/03/01 10:03:52;;;;;;;11.40;8.70;;;7.20;98.60;;;;;;5074986;28;20617;-42
2022/03/01 10:06:20;;;;;;;11.20;8.57;;;7.30;98.60;;;;;;5069979;28;20073;-43
2022/03/01 10:08:54;;;;;;;12.25;8.32;;;7.40;98.60;;;;;;5077489;28;20570;-42
2022/03/01 10:11:35;;;;;;;11.93;8.07;;;7.40;98.60;;;;;;5067807;28;20567;-43
2022/03/01 10:14:03;;;;;;;11.65;8.55;;;7.50;98.50;;;;;;5077162;28;20032;-42
2022/03/01 10:16:37;;;;;;;11.82;8.70;;;7.50;98.50;;;;;;5068261;28;20024;-43
2022/03/01 10:19:03;;;;;;;13.50;9.55;;;7.60;98.40;;;;;;5077529;28;20040;-42
2022/03/01 10:21:29;;;;;;;13.10;9.13;;;7.60;98.30;;;;;;5068757;28;20028;-42
2022/03/01 10:23:57;;;;;;;14.45;9.07;;;7.70;98.20;;;;;;5079292;28;20086;-43
2022/03/01 10:26:26;;;;;;;12.10;8.82;;;7.80;98.20;;;;;;5067591;28;20816;-43
2022/03/01 10:28:54;;;;;;;13.90;9.75;;;7.80;98.00;;;;;;5078816;28;20385;-43
2022/03/01 10:31:24;;;;;;;14.30;9.70;;;7.90;97.90;;;;;;5066863;28;20032;-39
2022/03/01 10:34:05;;;;;;;13.02;8.88;;;8.00;97.90;;;;;;5074483;28;20030;-42
2022/03/01 10:36:42;;;;;;;12.73;9.07;;;8.10;97.80;;;;;;5086944;28;20028;-41
2022/03/01 10:39:13;;;;;;;13.30;9.73;;;8.20;97.80;;;;;;5075105;28;20386;-42
2022/03/01 10:41:42;;;;;;;11.40;9.13;;;8.40;97.80;;;;;;5087715;28;20028;-42
2022/03/01 10:44:17;;;;;;;11.10;7.82;;;8.50;97.70;;;;;;5080057;28;20032;-41
2022/03/01 10:46:46;;;;;;;10.98;8.10;;;8.50;97.60;;;;;;5066743;28;20029;-42
2022/03/01 10:49:15;;;;;;;10.27;8.07;;;8.60;97.50;;;;;;5074791;28;20048;-43
2022/03/01 10:51:52;;;;;;;11.55;8.52;;;8.60;97.50;;;;;;5067590;28;20792;-44
2022/03/01 10:54:31;;;;;;;11.25;8.60;;;8.70;97.50;;;;;;5078197;28;20052;-44
2022/03/01 10:56:58;;;;;;;11.52;8.57;;;8.70;97.50;;;;;;5067320;28;20025;-42
2022/03/01 10:59:25;;;;;;;12.10;8.57;;;8.70;97.50;;;;;;5079202;28;20039;-43
2022/03/01 11:01:52;;;;;;;10.65;8.50;;;8.80;97.40;;;;;;5066368;28;20033;-41
2022/03/01 11:04:18;;;;;;;10.50;8.35;;;8.90;97.40;;;;;;5077828;28;20448;-41
2022/03/01 11:06:46;;;;;;;16.27;8.73;;;9.00;97.30;;;;;;5066651;28;20511;-42
2022/03/01 11:09:12;;;;;;;10.93;8.77;;;9.10;97.30;;;;;;5075367;28;20032;-43
2022/03/01 11:11:40;;;;;;;13.65;9.27;;;9.10;97.20;;;;;;5068998;28;20540;-40
2022/03/01 11:14:07;;;;;;;12.95;9.68;;;9.20;97.10;;;;;;5073938;28;20036;-42
2022/03/01 11:16:36;;;;;;;10.43;8.13;;;9.20;97.00;;;;;;5071498;28;20033;-41
2022/03/01 11:19:40;;;;;;;12.20;9.15;;;9.20;97.00;;;;;;5072220;28;20468;-41
2022/03/01 11:22:20;;;;;;;10.60;8.35;;;9.30;96.90;;;;;;5068462;28;20037;-42
2022/03/01 11:24:46;;;;;;;11.63;8.90;;;9.30;96.90;;;;;;5076084;28;20012;-42
2022/03/01 11:27:17;;;;;;;11.00;8.68;;;9.30;96.80;;;;;;5069032;28;20075;-42
2022/03/01 11:29:42;;;;;;;13.60;9.18;;;9.40;96.80;;;;;;5074061;28;20133;-40
2022/03/01 11:32:13;;;;;;;12.40;9.38;;;9.40;96.70;;;;;;5070737;28;20427;-42
2022/03/01 11:34:39;;;;;;;10.10;7.95;;;9.50;96.70;;;;;;5072108;28;20023;-43
2022/03/01 11:37:22;;;;;;;10.57;8.43;;;9.50;96.60;;;;;;5072044;28;20030;-40
2022/03/01 11:39:59;;;;;;;10.35;8.10;;;9.60;96.60;;;;;;5071641;28;20020;-43
2022/03/01 11:42:30;;;;;;;10.02;7.97;;;9.60;96.50;;;;;;5069513;28;20033;-42
2022/03/01 11:44:56;;;;;;;11.27;8.35;;;9.70;96.50;;;;;;5071582;28;20031;-42
2022/03/01 11:47:28;;;;;;;10.13;8.13;;;9.70;96.40;;;;;;5072786;28;20036;-43
2022/03/01 11:49:55;;;;;;;13.65;9.90;;;9.80;96.40;;;;;;5073381;28;20031;-42
2022/03/01 11:52:23;;;;;;;12.25;9.77;;;9.80;96.30;;;;;;5077178;28;20038;-44
2022/03/01 11:54:51;;;;;;;11.52;8.50;;;9.80;96.30;;;;;;5084582;28;20200;-41
2022/03/01 11:57:24;;;;;;;13.43;9.10;;;9.90;96.30;;;;;;5074571;28;20095;-42
2022/03/01 11:59:52;;;;;;;12.02;8.88;;;9.90;96.20;;;;;;5084479;28;20411;-42
2022/03/01 12:02:18;;;;;;;11.52;8.38;;;9.90;96.20;;;;;;5073820;28;20036;-43
2022/03/01 12:04:49;;;;;;;11.25;8.63;;;10.00;96.20;;;;;;5083913;28;20024;-41
2022/03/01 12:07:18;;;;;;;13.43;9.00;;;10.00;96.10;;;;;;5074337;28;20062;-42
2022/03/01 12:09:57;;;;;;;12.80;8.77;;;10.10;96.10;;;;;;5085411;28;20048;-41
2022/03/01 12:12:32;;;;;;;11.38;8.50;;;10.10;96.00;;;;;;5076448;28;20028;-40
2022/03/01 12:14:58;;;;;;;11.93;8.82;;;10.20;96.00;;;;;;5066744;28;20033;-42
2022/03/01 12:17:23;;;;;;;11.15;8.23;;;10.20;95.90;;;;;;5075551;28;20679;-43
2022/03/01 12:19:59;;;;;;;11.35;8.73;;;10.30;95.90;;;;;;5066544;28;20064;-42
2022/03/01 12:22:25;;;;;;;12.88;9.32;;;10.30;95.60;;;;;;5077436;28;20039;-43
2022/03/01 12:24:50;;;;;;;11.95;8.93;;;10.50;95.60;;;;;;5064836;28;20691;-41
2022/03/01 12:27:18;;;;;;;11.75;9.10;;;10.60;95.50;;;;;;5077722;28;20475;-41
2022/03/01 12:29:46;;;;;;;12.45;9.05;;;10.70;95.50;;;;;;5065313;28;20616;-40
2022/03/01 12:32:12;;;;;;;12.27;9.10;;;10.80;95.20;;;;;;5076293;28;20538;-42
2022/03/01 12:34:41;;;;;;;11.10;9.32;;;10.90;95.10;;;;;;5066199;28;20132;-44
2022/03/01 12:37:10;;;;;;;12.52;8.98;;;11.00;95.10;;;;;;5075120;28;20032;-42
2022/03/01 12:39:37;;;;;;;13.30;9.80;;;11.10;94.80;;;;;;5068019;28;20496;-42
2022/03/01 12:42:05;;;;;;;12.27;9.88;;;11.20;94.70;;;;;;5072385;28;20032;-43
2022/03/01 12:44:31;;;;;;;13.60;9.82;;;11.30;94.50;;;;;;5069165;28;20047;-42